createdAt,value
2018-06-19T00:58:10.104Z,99.90
2018-06-19T01:00:38.712Z,99.90
2018-06-19T01:03:07.127Z,99.90
2018-06-19T01:05:36.097Z,99.90
2018-06-19T01:08:05.109Z,99.90
2018-06-19T01:10:33.884Z,99.90
2018-06-19T01:13:03.638Z,99.90
2018-06-19T01:15:32.476Z,99.90
2018-06-19T01:18:01.144Z,99.90
2018-06-19T01:20:29.896Z,99.90
2018-06-19T01:22:58.527Z,99.90
2018-06-19T01:25:27.968Z,99.90
2018-06-19T01:27:56.602Z,99.90
2018-06-19T01:30:25.004Z,99.90
2018-06-19T01:32:53.809Z,99.90
2018-06-19T01:35:22.250Z,99.90
2018-06-19T01:37:50.629Z,99.90
2018-06-19T01:40:19.390Z,99.90
2018-06-19T01:42:48.965Z,99.90
2018-06-19T01:45:17.634Z,99.90
2018-06-19T01:47:47.244Z,99.90
2018-06-19T01:50:16.049Z,99.90
2018-06-19T01:52:44.829Z,99.90
2018-06-19T01:55:13.599Z,99.90
2018-06-19T01:57:42.694Z,99.90
2018-06-19T02:00:12.214Z,99.90
2018-06-19T02:02:41.014Z,99.90
2018-06-19T02:05:10.762Z,99.90
2018-06-19T02:07:39.407Z,99.90
2018-06-19T02:10:07.792Z,99.90
2018-06-19T02:12:36.578Z,99.90
2018-06-19T02:15:05.026Z,99.90
2018-06-19T02:17:34.881Z,99.90
2018-06-19T02:20:04.088Z,99.90
2018-06-19T02:22:32.487Z,99.90
2018-06-19T02:25:00.865Z,99.90
2018-06-19T02:27:29.255Z,99.90
2018-06-19T02:29:58.032Z,99.90
2018-06-19T02:32:27.608Z,99.90
2018-06-19T02:34:56.663Z,99.90
2018-06-19T02:37:25.053Z,99.90
2018-06-19T02:39:54.276Z,99.90
2018-06-19T02:42:22.730Z,99.90
2018-06-19T02:44:51.248Z,99.90
2018-06-19T02:47:20.337Z,99.90
2018-06-19T02:49:49.134Z,99.90
2018-06-19T02:52:17.706Z,99.90
2018-06-19T02:54:46.408Z,99.90
2018-06-19T02:57:14.933Z,99.90
2018-06-19T02:59:44.125Z,99.90
2018-06-19T03:02:12.916Z,99.90
2018-06-19T03:04:41.318Z,99.90
2018-06-19T03:07:09.733Z,99.90
2018-06-19T03:09:38.545Z,99.90
2018-06-19T03:12:07.378Z,99.90
2018-06-19T03:14:36.061Z,99.90
2018-06-19T03:17:04.522Z,99.90
2018-06-19T03:19:33.013Z,99.90
2018-06-19T03:22:01.444Z,99.90
2018-06-19T03:24:31.057Z,99.90
2018-06-19T03:26:59.501Z,99.90
2018-06-19T03:29:28.297Z,99.90
2018-06-19T03:31:56.831Z,99.90
2018-06-19T03:34:26.599Z,99.90
2018-06-19T03:36:55.301Z,99.90
2018-06-19T03:39:23.668Z,99.90
2018-06-19T03:41:52.095Z,99.90
2018-06-19T03:44:20.627Z,99.90
2018-06-19T03:46:50.218Z,99.90
2018-06-19T03:49:18.816Z,99.90
2018-06-19T03:51:47.192Z,99.90
2018-06-19T03:54:16.360Z,99.90
2018-06-19T03:56:44.832Z,99.90
2018-06-19T03:59:13.362Z,99.90
2018-06-19T04:01:42.078Z,99.90
2018-06-19T04:04:11.161Z,99.90
2018-06-19T04:06:39.573Z,99.90
2018-06-19T04:09:08.685Z,99.90
2018-06-19T04:11:37.791Z,99.90
2018-06-19T04:14:06.588Z,99.90
2018-06-19T04:16:35.122Z,99.90
2018-06-19T04:19:03.723Z,99.90
2018-06-19T04:21:34.800Z,99.90
2018-06-19T04:24:04.769Z,99.90
2018-06-19T04:26:33.610Z,99.90
2018-06-19T04:29:02.274Z,99.90
2018-06-19T04:33:58.863Z,99.90
2018-06-19T04:36:27.283Z,99.90
2018-06-19T04:38:55.725Z,99.90
2018-06-19T04:41:24.984Z,99.90
2018-06-19T04:43:53.986Z,99.90
2018-06-19T04:46:22.617Z,99.90
2018-06-19T04:48:51.998Z,99.90
2018-06-19T04:51:25.904Z,99.90
2018-06-19T04:53:55.328Z,99.90
2018-06-19T04:56:24.590Z,99.90
2018-06-19T04:58:53.521Z,99.90
2018-06-19T05:01:22.105Z,99.90
2018-06-19T05:03:55.039Z,99.90
2018-06-19T05:06:23.935Z,99.90
2018-06-19T05:08:52.745Z,99.90
2018-06-19T05:11:21.415Z,99.90
2018-06-19T05:13:49.833Z,99.90
2018-06-19T05:16:18.569Z,99.90
2018-06-19T05:18:47.736Z,99.90
2018-06-19T05:21:17.506Z,99.90
2018-06-19T05:23:46.220Z,99.90
2018-06-19T05:26:14.904Z,99.90
2018-06-19T05:28:45.497Z,99.90
2018-06-19T05:31:14.403Z,99.90
2018-06-19T05:33:43.045Z,99.90
2018-06-19T05:36:11.650Z,99.90
2018-06-19T05:38:40.275Z,99.90
2018-06-19T05:41:09.666Z,99.90
2018-06-19T05:43:38.368Z,99.90
2018-06-19T05:46:06.826Z,99.90
2018-06-19T05:48:36.628Z,99.90
2018-06-19T05:51:07.589Z,99.90
2018-06-19T05:53:38.082Z,99.90
2018-06-19T05:56:06.897Z,99.90
2018-06-19T05:58:35.929Z,99.90
2018-06-19T06:01:04.816Z,99.90
2018-06-19T06:03:33.231Z,99.90
2018-06-19T06:06:01.853Z,99.90
2018-06-19T06:08:30.405Z,99.90
2018-06-19T06:10:59.057Z,99.90
2018-06-19T06:13:27.611Z,99.90
2018-06-19T06:15:56.526Z,99.90
2018-06-19T06:18:25.246Z,99.90
2018-06-19T06:20:54.621Z,99.90
2018-06-19T06:23:24.062Z,99.90
2018-06-19T06:25:52.524Z,99.90
2018-06-19T06:28:21.149Z,99.90
2018-06-19T06:30:49.567Z,99.90
2018-06-19T06:33:18.264Z,99.90
2018-06-19T06:35:46.773Z,99.90
2018-06-19T06:38:16.231Z,99.90
2018-06-19T06:40:44.914Z,99.90
2018-06-19T06:43:13.381Z,99.90
2018-06-19T06:45:41.891Z,99.90
2018-06-19T06:48:10.324Z,98.60
2018-06-19T06:50:38.867Z,94.20
2018-06-19T06:53:07.343Z,90.80
2018-06-19T06:55:36.586Z,84.30
2018-06-19T06:58:05.901Z,76.00
2018-06-19T07:00:34.810Z,67.90
2018-06-19T07:03:03.205Z,66.60
2018-06-19T07:05:31.585Z,66.00
2018-06-19T07:08:00.310Z,59.40
2018-06-19T07:10:28.977Z,56.90
2018-06-19T07:12:57.505Z,58.40
2018-06-19T07:15:26.227Z,62.70
2018-06-19T07:17:54.611Z,66.30
2018-06-19T07:20:23.153Z,72.80
2018-06-19T07:22:51.901Z,77.00
2018-06-19T07:27:48.546Z,90.00
2018-06-19T07:30:17.202Z,91.60
2018-06-19T07:32:46.135Z,92.80
2018-06-19T07:35:14.582Z,93.50
2018-06-19T07:37:44.048Z,96.20
2018-06-19T07:40:12.780Z,95.20
2018-06-19T07:42:41.207Z,96.60
2018-06-19T07:45:09.650Z,96.60
2018-06-19T07:47:38.812Z,96.40
2018-06-19T07:50:07.670Z,95.20
2018-06-19T07:52:36.136Z,91.80
2018-06-19T07:55:04.822Z,82.80
2018-06-19T07:57:33.410Z,75.90
2018-06-19T08:00:03.069Z,67.70
2018-06-19T08:02:32.497Z,66.10
2018-06-19T08:07:32.352Z,67.00
2018-06-19T08:10:01.373Z,61.30
2018-06-19T08:12:31.374Z,63.70
2018-06-19T08:14:59.901Z,64.00
2018-06-19T08:17:28.684Z,67.80
2018-06-19T08:19:57.084Z,71.20
2018-06-19T08:22:25.642Z,72.90
2018-06-19T08:24:54.280Z,73.90
2018-06-19T08:27:23.419Z,69.40
2018-06-19T08:29:52.597Z,73.40
2018-06-19T08:32:21.048Z,71.00
2018-06-19T08:34:49.612Z,70.10
2018-06-19T08:39:47.087Z,59.60
2018-06-19T08:42:15.661Z,60.80
2018-06-19T08:44:44.033Z,55.70
2018-06-19T08:47:12.419Z,52.90
2018-06-19T08:49:40.916Z,52.50
2018-06-19T08:52:09.351Z,54.20
2018-06-19T08:54:37.795Z,54.60
2018-06-19T08:57:06.215Z,49.50
2018-06-19T08:59:36.404Z,52.80
2018-06-19T09:02:04.945Z,55.20
2018-06-19T09:04:33.708Z,58.20
2018-06-19T09:07:02.760Z,54.40
2018-06-19T09:09:31.796Z,55.00
2018-06-19T09:12:00.326Z,51.80
2018-06-19T09:14:28.996Z,51.90
2018-06-19T09:16:57.469Z,50.50
2018-06-19T09:19:26.694Z,49.70
2018-06-19T09:21:56.029Z,51.40
2018-06-19T09:24:25.381Z,51.60
2018-06-19T09:26:54.000Z,52.90
2018-06-19T09:29:23.250Z,56.00
2018-06-19T09:31:52.802Z,61.40
2018-06-19T09:34:22.081Z,59.70
2018-06-19T09:36:50.836Z,60.70
2018-06-19T09:39:20.080Z,60.80
2018-06-19T09:41:50.423Z,59.80
2018-06-19T09:44:20.295Z,62.10
2018-06-19T09:46:49.046Z,65.50
2018-06-19T09:49:17.942Z,68.70
2018-06-19T09:51:46.466Z,69.00
2018-06-19T09:54:15.640Z,70.20
2018-06-19T09:56:44.332Z,76.00
2018-06-19T10:01:41.295Z,71.90
2018-06-19T10:04:10.073Z,72.00
2018-06-19T10:06:39.391Z,76.40
2018-06-19T10:09:09.087Z,80.60
2018-06-19T10:11:37.885Z,80.90
2018-06-19T10:14:06.947Z,76.90
2018-06-19T10:16:35.749Z,77.30
2018-06-19T10:19:04.619Z,82.10
2018-06-19T10:21:33.056Z,81.90
2018-06-19T10:24:01.659Z,79.00
2018-06-19T10:26:30.729Z,83.80
2018-06-19T10:28:59.689Z,88.10
2018-06-19T10:31:28.454Z,86.90
2018-06-19T10:33:57.294Z,79.90
2018-06-19T10:36:26.051Z,87.50
2018-06-19T10:38:54.548Z,79.10
2018-06-19T10:41:23.491Z,80.30
2018-06-19T10:43:53.543Z,83.00
2018-06-19T10:46:22.204Z,78.00
2018-06-19T10:48:50.937Z,75.10
2018-06-19T10:51:22.011Z,78.10
2018-06-19T10:53:50.861Z,73.20
2018-06-19T10:56:19.352Z,76.10
2018-06-19T11:01:16.230Z,80.20
2018-06-19T11:03:45.083Z,84.10
2018-06-19T11:06:14.832Z,82.50
2018-06-19T11:08:43.997Z,90.40
2018-06-19T11:11:12.900Z,86.90
2018-06-19T11:13:41.602Z,86.20
2018-06-19T11:16:10.233Z,83.80
2018-06-19T11:18:39.921Z,90.40
2018-06-19T11:21:08.374Z,91.80
2018-06-19T11:23:38.238Z,91.90
2018-06-19T11:26:07.323Z,85.70
2018-06-19T11:28:36.165Z,84.20
2018-06-19T11:31:05.400Z,84.70
2018-06-19T11:33:34.030Z,81.60
2018-06-19T11:36:02.785Z,84.80
2018-06-19T11:38:31.696Z,85.30
2018-06-19T11:41:00.692Z,86.70
2018-06-19T11:43:30.181Z,86.50
2018-06-19T11:45:58.820Z,85.30
2018-06-19T11:48:28.007Z,90.00
2018-06-19T11:50:57.184Z,91.40
2018-06-19T11:55:54.962Z,87.50
2018-06-19T11:58:23.611Z,89.40
2018-06-19T12:00:53.257Z,91.60
2018-06-19T12:03:22.336Z,91.00
2018-06-19T12:05:50.942Z,92.00
2018-06-19T12:08:19.537Z,91.00
2018-06-19T12:10:48.615Z,87.70
2018-06-19T12:15:46.267Z,88.30
2018-06-19T12:18:15.412Z,87.90
2018-06-19T12:20:47.270Z,81.80
2018-06-19T12:23:15.837Z,85.70
2018-06-19T12:25:44.547Z,83.50
2018-06-19T12:28:13.230Z,82.80
2018-06-19T12:30:41.664Z,85.30
2018-06-19T12:33:10.453Z,78.30
2018-06-19T12:35:39.153Z,75.50
2018-06-19T12:40:36.923Z,79.10
2018-06-19T12:43:06.107Z,78.40
2018-06-19T12:45:35.033Z,74.60
2018-06-19T12:48:04.499Z,74.70
2018-06-19T12:51:47.179Z,72.80
2018-06-19T12:54:27.756Z,76.80
2018-06-19T12:56:56.405Z,79.40
2018-06-19T13:01:54.147Z,76.70
2018-06-19T13:04:34.788Z,74.40
2018-06-19T13:07:03.547Z,75.60
2018-06-19T13:12:35.889Z,73.30
2018-06-19T13:17:45.522Z,76.60
2018-06-19T13:20:28.132Z,73.40
2018-06-19T13:22:58.059Z,76.80
2018-06-19T13:25:27.019Z,74.80
2018-06-19T13:27:55.447Z,73.00
2018-06-19T13:30:35.849Z,72.60
2018-06-19T13:33:05.606Z,70.90
2018-06-19T13:35:34.582Z,69.80
2018-06-19T13:38:03.697Z,69.40
2018-06-19T13:41:40.286Z,71.60
2018-06-19T13:44:21.163Z,69.00
2018-06-19T13:46:50.133Z,75.50
2018-06-19T13:49:18.589Z,74.00
2018-06-19T13:51:47.603Z,74.20
2018-06-19T13:54:16.484Z,68.60
2018-06-19T13:57:11.433Z,71.20
2018-06-19T13:59:40.812Z,68.80
2018-06-19T14:02:09.489Z,68.00
2018-06-19T14:04:38.537Z,67.40
2018-06-19T14:07:07.278Z,67.90
2018-06-19T14:09:48.762Z,68.10
2018-06-19T14:13:27.984Z,67.90
2018-06-19T14:15:57.687Z,73.50
2018-06-19T14:18:26.625Z,69.50
2018-06-19T14:20:55.294Z,73.30
2018-06-19T14:23:24.126Z,75.20
2018-06-19T14:25:53.668Z,74.70
2018-06-19T14:28:22.876Z,78.70
2018-06-19T14:30:51.814Z,77.30
2018-06-19T14:33:21.999Z,73.90
2018-06-19T14:35:52.062Z,78.70
2018-06-19T14:38:22.311Z,77.10
2018-06-19T14:40:51.521Z,76.50
2018-06-19T14:43:21.414Z,75.20
2018-06-19T14:45:50.527Z,73.60
2018-06-19T14:48:19.475Z,74.80
2018-06-19T14:50:48.421Z,71.10
2018-06-19T14:53:17.181Z,73.80
2018-06-19T14:55:46.098Z,73.60
2018-06-19T14:58:15.131Z,76.00
2018-06-19T15:00:43.887Z,76.30
2018-06-19T15:03:14.575Z,79.20
2018-06-19T15:05:43.712Z,79.00
2018-06-19T15:08:12.696Z,76.90
2018-06-19T15:10:41.469Z,80.30
2018-06-19T15:13:11.264Z,80.30
2018-06-19T15:15:40.438Z,82.60
2018-06-19T15:18:09.727Z,79.50
2018-06-19T15:20:38.389Z,79.80
2018-06-19T15:23:07.231Z,74.10
2018-06-19T15:25:36.554Z,75.50
2018-06-19T15:28:05.216Z,74.00
2018-06-19T15:30:34.373Z,74.90
2018-06-19T15:33:03.351Z,74.30
2018-06-19T15:35:32.457Z,75.00
2018-06-19T15:38:01.564Z,78.90
2018-06-19T15:40:30.493Z,78.90
2018-06-19T15:42:58.949Z,79.90
2018-06-19T15:45:28.637Z,82.40
2018-06-19T15:47:58.944Z,80.70
2018-06-19T15:50:27.750Z,82.70
2018-06-19T15:52:57.657Z,78.80
2018-06-19T15:55:26.578Z,80.00
2018-06-19T16:00:25.155Z,79.00
2018-06-19T16:02:53.620Z,75.30
2018-06-19T16:05:22.500Z,77.50
2018-06-19T16:07:57.603Z,77.60
2018-06-19T16:10:26.613Z,76.60
2018-06-19T16:12:55.081Z,78.90
2018-06-19T16:15:23.517Z,81.50
2018-06-19T16:17:54.005Z,83.80
2018-06-19T16:20:22.732Z,83.70
2018-06-19T16:22:51.920Z,84.00
2018-06-19T16:25:20.455Z,83.60
2018-06-19T16:27:49.871Z,88.90
2018-06-19T16:30:19.040Z,85.00
2018-06-19T16:32:47.722Z,85.20
2018-06-19T16:35:16.176Z,86.10
2018-06-19T16:37:45.225Z,83.80
2018-06-19T16:40:14.449Z,83.80
2018-06-19T16:42:43.580Z,81.60
2018-06-19T16:45:12.539Z,82.20
2018-06-19T16:47:41.042Z,85.90
2018-06-19T16:50:09.651Z,81.10
2018-06-19T16:52:38.417Z,80.40
2018-06-19T16:55:07.441Z,83.70
2018-06-19T16:57:35.950Z,80.50
2018-06-19T17:00:05.814Z,80.90
2018-06-19T17:05:04.058Z,81.00
2018-06-19T17:07:32.501Z,79.30
2018-06-19T17:10:01.626Z,80.90
2018-06-19T17:12:30.080Z,80.90
2018-06-19T17:14:58.796Z,79.40
2018-06-19T17:17:27.643Z,81.00
2018-06-19T17:19:56.331Z,80.00
2018-06-19T17:22:24.950Z,83.50
2018-06-19T17:24:54.347Z,83.10
2018-06-19T17:27:22.922Z,80.90
2018-06-19T17:29:51.944Z,83.70
2018-06-19T17:32:20.438Z,84.90
2018-06-19T17:34:49.029Z,82.40
2018-06-19T17:37:17.994Z,85.40
2018-06-19T17:39:46.478Z,85.30
2018-06-19T17:42:15.468Z,84.40
2018-06-19T17:44:44.429Z,83.20
2018-06-19T17:47:12.977Z,85.10
2018-06-19T17:49:42.026Z,86.20
2018-06-19T17:52:10.537Z,85.70
2018-06-19T17:54:40.102Z,86.20
2018-06-19T17:57:08.565Z,84.20
2018-06-19T18:02:05.718Z,88.10
2018-06-19T18:04:34.384Z,87.80
2018-06-19T18:07:02.917Z,88.30
2018-06-19T18:09:31.694Z,87.30
2018-06-19T18:12:00.344Z,87.70
2018-06-19T18:14:28.763Z,88.40
2018-06-19T18:19:25.700Z,90.10
2018-06-19T18:21:54.710Z,91.40
2018-06-19T18:24:23.404Z,90.40
2018-06-19T18:26:52.384Z,90.30
2018-06-19T18:29:21.239Z,91.20
2018-06-19T18:31:50.280Z,91.80
2018-06-19T18:34:19.017Z,91.60
2018-06-19T18:36:48.358Z,91.20
2018-06-19T18:39:16.821Z,91.70
2018-06-19T18:41:46.372Z,91.70
2018-06-19T18:44:15.135Z,92.20
2018-06-19T18:46:44.221Z,92.40
2018-06-19T18:49:12.925Z,92.70
2018-06-19T18:54:10.371Z,92.90
2018-06-19T18:56:39.010Z,93.30
2018-06-19T18:59:07.799Z,93.50
2018-06-19T19:01:36.673Z,93.80
2018-06-19T19:04:05.818Z,94.00
2018-06-19T19:06:34.308Z,94.10
2018-06-19T19:09:02.815Z,94.40
2018-06-19T19:11:32.007Z,95.10
2018-06-19T19:14:00.754Z,95.40
2018-06-19T19:16:35.023Z,95.50
2018-06-19T19:19:06.282Z,95.60
2018-06-19T19:21:35.416Z,95.90
2018-06-19T19:24:04.540Z,96.40
2018-06-19T19:28:44.022Z,96.70
2018-06-19T19:31:12.570Z,97.10
2018-06-19T19:33:41.276Z,97.90
2018-06-19T19:36:13.993Z,98.20
2018-06-19T19:38:48.913Z,98.90
2018-06-19T19:41:17.431Z,99.10
2018-06-19T19:43:46.070Z,99.30
2018-06-19T19:46:19.795Z,99.90
2018-06-19T19:48:57.476Z,99.90
2018-06-19T19:51:27.435Z,99.90
2018-06-19T19:53:57.163Z,99.90
2018-06-19T19:56:31.335Z,99.90
2018-06-19T19:59:01.415Z,99.90
2018-06-19T20:01:30.189Z,99.90
2018-06-19T20:03:59.294Z,99.90
2018-06-19T20:06:27.920Z,99.90
2018-06-19T20:08:57.196Z,99.90
2018-06-19T20:11:25.684Z,99.90
2018-06-19T20:13:54.191Z,99.90
2018-06-19T20:16:23.996Z,99.90
2018-06-19T20:18:53.980Z,99.90
2018-06-19T20:21:23.164Z,99.90
2018-06-19T20:23:51.685Z,99.90
2018-06-19T20:26:20.353Z,99.90
2018-06-19T20:28:50.473Z,99.90
2018-06-19T20:31:18.845Z,99.90
2018-06-19T20:33:47.540Z,99.90
2018-06-19T20:36:16.959Z,99.90
2018-06-19T20:38:45.881Z,99.90
2018-06-19T20:41:14.417Z,99.90
2018-06-19T20:43:43.304Z,99.90
2018-06-19T20:46:12.192Z,99.90
2018-06-19T20:48:40.693Z,99.90
2018-06-19T20:51:10.441Z,99.90
2018-06-19T20:53:39.740Z,99.90
2018-06-19T20:56:08.381Z,99.90
2018-06-19T20:58:36.797Z,99.90
2018-06-19T21:01:06.223Z,99.90
2018-06-19T21:03:34.984Z,99.90
2018-06-19T21:06:03.699Z,99.90
2018-06-19T21:08:39.766Z,99.90
2018-06-19T21:11:09.935Z,99.90
2018-06-19T21:13:38.871Z,99.90
2018-06-19T21:18:36.220Z,99.90
2018-06-19T21:21:04.993Z,99.90
2018-06-19T21:23:33.569Z,99.90
2018-06-19T21:26:02.439Z,99.90
2018-06-19T21:28:31.728Z,99.90
2018-06-19T21:31:00.357Z,99.90
2018-06-19T21:33:28.911Z,99.90
2018-06-19T21:35:57.316Z,99.90
2018-06-19T21:38:26.075Z,99.90
2018-06-19T21:40:55.766Z,99.90
2018-06-19T21:43:24.782Z,99.90
2018-06-19T21:45:53.195Z,99.90
2018-06-19T21:48:22.429Z,99.90
2018-06-19T21:50:51.226Z,99.90
2018-06-19T21:55:48.049Z,99.90
